Time;durP1;ratioP1;P1;durP2;ratioP2;P2;SDS_P1;SDS_P2;PMS_P1;PMS_P2;Temp;Humidity;BMP_temperature;BMP_pressure;BME280_temperature;BME280_humidity;BME280_pressure;Samples;Min_cycle;Max_cycle;Signal;HPM_P1;HPM_P2
2021/05/16 00:00:09;;;;;;;4.37;4.03;;;;;;;;;;5006550;28;20702;-45
2021/05/16 00:02:34;;;;;;;4.40;4.10;;;;;;;;;;4994206;28;20657;-46
2021/05/16 00:04:59;;;;;;;5.10;4.70;;;;;;;;;;5006508;28;20613;-46
2021/05/16 00:07:24;;;;;;;5.55;5.15;;;;;;;;;;5007075;28;20654;-45
2021/05/16 00:09:50;;;;;;;5.38;4.97;;;;;;;;;;5006373;28;20439;-47
2021/05/16 00:12:15;;;;;;;5.43;4.83;;;;;;;;;;5006908;28;20203;-45
2021/05/16 00:14:41;;;;;;;5.60;5.20;;;;;;;;;;5006492;28;20176;-46
2021/05/16 00:17:06;;;;;;;4.83;4.43;;;;;;;;;;5006937;28;20199;-45
2021/05/16 00:19:32;;;;;;;4.70;4.40;;;;;;;;;;5006721;28;20703;-45
2021/05/16 00:21:57;;;;;;;4.80;4.37;;;;;;;;;;5009103;28;20203;-45
2021/05/16 00:24:22;;;;;;;5.37;4.97;;;;;;;;;;5010564;28;20181;-45
2021/05/16 00:26:49;;;;;;;4.97;4.57;;;;;;;;;;5009905;28;20234;-45
2021/05/16 00:29:15;;;;;;;4.50;4.17;;;;;;;;;;5010562;28;20662;-45
2021/05/16 00:31:40;;;;;;;4.83;4.43;;;;;;;;;;5010613;28;20578;-45
2021/05/16 00:34:06;;;;;;;4.13;3.90;;;;;;;;;;5010114;28;21475;-45
2021/05/16 00:36:31;;;;;;;4.65;4.25;;;;;;;;;;5009873;28;20255;-45
2021/05/16 00:38:56;;;;;;;4.30;4.00;;;;;;;;;;5010177;28;20646;-45
2021/05/16 00:41:22;;;;;;;4.30;4.00;;;;;;;;;;5010261;28;20184;-45
2021/05/16 00:43:47;;;;;;;3.90;3.50;;;;;;;;;;5009970;28;20321;-45
2021/05/16 00:46:12;;;;;;;3.30;3.00;;;;;;;;;;5010495;28;20194;-45
2021/05/16 00:48:38;;;;;;;3.47;3.28;;;;;;;;;;5010193;28;20196;-45
2021/05/16 00:51:03;;;;;;;3.30;3.00;;;;;;;;;;5009379;28;20176;-45
2021/05/16 00:53:28;;;;;;;3.70;3.50;;;;;;;;;;5010671;28;20259;-45
2021/05/16 00:55:55;;;;;;;2.90;2.80;;;;;;;;;;5009389;28;20203;-45
2021/05/16 00:58:21;;;;;;;3.07;2.87;;;;;;;;;;5009938;28;20187;-45
2021/05/16 01:00:46;;;;;;;3.08;2.97;;;;;;;;;;5009265;28;20610;-45
2021/05/16 01:03:12;;;;;;;2.90;2.80;;;;;;;;;;5009961;28;20250;-45
2021/05/16 01:05:38;;;;;;;3.37;3.17;;;;;;;;;;5009546;28;20184;-45
2021/05/16 01:08:04;;;;;;;3.40;3.20;;;;;;;;;;5009720;28;20613;-44
2021/05/16 01:10:30;;;;;;;3.07;2.87;;;;;;;;;;5009263;28;20760;-46
2021/05/16 01:12:56;;;;;;;3.50;3.20;;;;;;;;;;5009316;28;21144;-45
2021/05/16 01:15:23;;;;;;;3.70;3.40;;;;;;;;;;5009519;28;20547;-45
2021/05/16 01:17:48;;;;;;;3.73;3.53;;;;;;;;;;5009149;28;21219;-44
2021/05/16 01:20:16;;;;;;;3.27;3.07;;;;;;;;;;5008940;28;20607;-45
2021/05/16 01:22:41;;;;;;;3.33;3.13;;;;;;;;;;5009173;28;20179;-46
2021/05/16 01:25:07;;;;;;;4.00;3.70;;;;;;;;;;5008784;28;20596;-45
2021/05/16 01:27:32;;;;;;;3.33;3.13;;;;;;;;;;5009618;28;20183;-45
2021/05/16 01:29:57;;;;;;;3.50;3.30;;;;;;;;;;5008746;28;20595;-45
2021/05/16 01:32:24;;;;;;;3.90;3.67;;;;;;;;;;5008499;28;20191;-45
2021/05/16 01:34:50;;;;;;;3.80;3.60;;;;;;;;;;5008860;28;20207;-45
2021/05/16 01:37:15;;;;;;;3.80;3.60;;;;;;;;;;5009554;28;20709;-45
2021/05/16 01:39:40;;;;;;;4.10;3.90;;;;;;;;;;5009134;28;20234;-45
2021/05/16 01:42:06;;;;;;;4.97;4.20;;;;;;;;;;5008577;28;20274;-45
2021/05/16 01:44:31;;;;;;;4.30;4.00;;;;;;;;;;5009155;28;20547;-45
2021/05/16 01:47:01;;;;;;;4.33;4.03;;;;;;;;;;5008454;28;20271;-45
2021/05/16 01:49:26;;;;;;;4.10;3.80;;;;;;;;;;4999399;28;20179;-45
2021/05/16 01:51:51;;;;;;;4.20;3.90;;;;;;;;;;5008844;28;21042;-45
2021/05/16 01:54:18;;;;;;;4.00;3.80;;;;;;;;;;5009148;28;20193;-45
2021/05/16 01:56:43;;;;;;;4.50;4.10;;;;;;;;;;5008801;28;20211;-45
2021/05/16 01:59:08;;;;;;;3.70;3.50;;;;;;;;;;5008620;28;20877;-45
2021/05/16 02:01:33;;;;;;;3.67;3.47;;;;;;;;;;5008413;28;20545;-45
2021/05/16 02:03:59;;;;;;;4.23;4.00;;;;;;;;;;5008622;28;20180;-45
2021/05/16 02:06:24;;;;;;;4.07;3.77;;;;;;;;;;5008733;28;20215;-45
2021/05/16 02:08:50;;;;;;;4.10;3.80;;;;;;;;;;5008352;28;20175;-45
2021/05/16 02:11:15;;;;;;;3.70;3.50;;;;;;;;;;5008379;28;20593;-44
2021/05/16 02:13:41;;;;;;;3.70;3.50;;;;;;;;;;5008289;28;20604;-44
2021/05/16 02:16:07;;;;;;;3.67;3.43;;;;;;;;;;5008198;28;20647;-45
2021/05/16 02:18:32;;;;;;;4.57;4.17;;;;;;;;;;5008480;28;20175;-44
2021/05/16 02:20:58;;;;;;;4.07;3.77;;;;;;;;;;5007860;28;20649;-45
2021/05/16 02:23:23;;;;;;;4.20;3.90;;;;;;;;;;5008039;28;20206;-44
2021/05/16 02:25:51;;;;;;;4.30;4.00;;;;;;;;;;5008130;28;20230;-44
2021/05/16 02:28:17;;;;;;;4.60;4.30;;;;;;;;;;5008889;28;20175;-44
2021/05/16 02:30:42;;;;;;;4.60;4.30;;;;;;;;;;5007625;28;20701;-44
2021/05/16 02:33:07;;;;;;;4.70;4.30;;;;;;;;;;5007881;28;20817;-49
2021/05/16 02:35:33;;;;;;;5.00;4.60;;;;;;;;;;5007605;28;20183;-44
2021/05/16 02:37:58;;;;;;;4.10;3.80;;;;;;;;;;5007893;28;20213;-44
2021/05/16 02:40:23;;;;;;;4.03;3.78;;;;;;;;;;5007883;28;20389;-44
2021/05/16 02:42:48;;;;;;;3.40;3.20;;;;;;;;;;5008004;28;20614;-45
2021/05/16 02:45:14;;;;;;;3.80;3.53;;;;;;;;;;5007195;28;20183;-45
2021/05/16 02:47:39;;;;;;;4.40;4.00;;;;;;;;;;5007960;28;20567;-45
2021/05/16 02:50:05;;;;;;;3.53;3.33;;;;;;;;;;5007503;28;20187;-44
2021/05/16 02:52:30;;;;;;;4.03;3.60;;;;;;;;;;5008130;28;20178;-44
2021/05/16 02:54:55;;;;;;;3.40;3.20;;;;;;;;;;5007489;28;20650;-45
2021/05/16 02:57:21;;;;;;;3.35;3.15;;;;;;;;;;5007916;28;20210;-44
2021/05/16 02:59:46;;;;;;;3.67;3.47;;;;;;;;;;5007722;28;20174;-45
2021/05/16 03:02:12;;;;;;;3.78;3.58;;;;;;;;;;5007192;28;20590;-45
2021/05/16 03:04:37;;;;;;;2.93;2.73;;;;;;;;;;5007906;28;20187;-45
2021/05/16 03:07:02;;;;;;;3.67;3.47;;;;;;;;;;5007461;28;20178;-45
2021/05/16 03:09:30;;;;;;;3.83;3.63;;;;;;;;;;5007323;28;20209;-45
2021/05/16 03:11:55;;;;;;;3.40;3.10;;;;;;;;;;5007390;28;20198;-45
2021/05/16 03:14:20;;;;;;;3.60;3.30;;;;;;;;;;5007189;28;20614;-45
2021/05/16 03:16:45;;;;;;;3.55;3.35;;;;;;;;;;5007578;28;20212;-45
2021/05/16 03:19:10;;;;;;;3.97;3.70;;;;;;;;;;5007079;28;20665;-45
2021/05/16 03:21:35;;;;;;;3.87;3.60;;;;;;;;;;5007069;28;20179;-45
2021/05/16 03:24:00;;;;;;;3.05;2.95;;;;;;;;;;5007878;28;20636;-44
2021/05/16 03:26:26;;;;;;;3.70;3.40;;;;;;;;;;5007154;28;20183;-43
2021/05/16 03:28:51;;;;;;;3.50;3.30;;;;;;;;;;5006742;28;20182;-43
2021/05/16 03:31:16;;;;;;;4.13;3.83;;;;;;;;;;5007316;28;20173;-44
2021/05/16 03:33:41;;;;;;;3.80;3.60;;;;;;;;;;5007055;28;20194;-44
2021/05/16 03:36:07;;;;;;;4.83;4.43;;;;;;;;;;5006545;28;20210;-43
2021/05/16 03:38:32;;;;;;;5.30;4.90;;;;;;;;;;5007621;28;20629;-43
2021/05/16 03:40:57;;;;;;;5.07;4.67;;;;;;;;;;5006805;28;20218;-43
2021/05/16 03:43:23;;;;;;;4.50;4.20;;;;;;;;;;5007336;28;20670;-44
2021/05/16 03:45:48;;;;;;;5.80;5.40;;;;;;;;;;5007249;28;20238;-45
2021/05/16 03:48:13;;;;;;;5.13;4.70;;;;;;;;;;5007261;28;20183;-45
2021/05/16 03:50:38;;;;;;;5.30;4.90;;;;;;;;;;5007222;28;20169;-44
2021/05/16 03:53:03;;;;;;;4.73;4.40;;;;;;;;;;5007510;28;20169;-44
2021/05/16 03:55:29;;;;;;;5.47;4.97;;;;;;;;;;5008945;28;20537;-44
2021/05/16 03:57:54;;;;;;;5.20;4.80;;;;;;;;;;5006979;28;20259;-45
2021/05/16 04:00:19;;;;;;;5.70;5.20;;;;;;;;;;5010518;28;20175;-44
2021/05/16 04:02:45;;;;;;;5.93;5.43;;;;;;;;;;5010739;28;20218;-44
2021/05/16 04:05:11;;;;;;;5.87;5.47;;;;;;;;;;5010700;28;20196;-45
2021/05/16 04:07:36;;;;;;;6.27;5.77;;;;;;;;;;5010624;28;20632;-44
2021/05/16 04:10:02;;;;;;;5.90;5.50;;;;;;;;;;5010664;28;20237;-44
2021/05/16 04:12:27;;;;;;;5.90;5.40;;;;;;;;;;5010956;28;20610;-45
2021/05/16 04:14:53;;;;;;;5.82;5.43;;;;;;;;;;5010370;28;20609;-44
2021/05/16 04:17:19;;;;;;;6.30;5.80;;;;;;;;;;5010762;28;20253;-45
2021/05/16 04:19:44;;;;;;;7.00;6.40;;;;;;;;;;5011016;28;20353;-44
2021/05/16 04:22:09;;;;;;;5.90;5.50;;;;;;;;;;5010382;28;20700;-44
2021/05/16 04:24:34;;;;;;;6.13;5.73;;;;;;;;;;5010333;28;20213;-44
2021/05/16 04:26:59;;;;;;;7.00;6.50;;;;;;;;;;5010348;28;20593;-45
2021/05/16 04:29:25;;;;;;;6.90;6.40;;;;;;;;;;5010129;28;20264;-44
2021/05/16 04:31:50;;;;;;;6.57;6.07;;;;;;;;;;5009869;28;20198;-45
2021/05/16 04:34:15;;;;;;;7.43;6.60;;;;;;;;;;5010577;28;20210;-45
2021/05/16 04:36:40;;;;;;;7.50;6.90;;;;;;;;;;5010037;28;20748;-45
2021/05/16 04:39:06;;;;;;;7.60;7.10;;;;;;;;;;5010307;28;20183;-45
2021/05/16 04:41:33;;;;;;;7.20;6.70;;;;;;;;;;5010269;28;20191;-45
2021/05/16 04:43:58;;;;;;;7.20;6.70;;;;;;;;;;5009845;28;20571;-45
2021/05/16 04:46:23;;;;;;;7.77;7.20;;;;;;;;;;5009405;28;20600;-45
2021/05/16 04:48:48;;;;;;;7.53;6.93;;;;;;;;;;5010731;28;20187;-44
2021/05/16 04:51:13;;;;;;;8.75;7.97;;;;;;;;;;5009931;28;20720;-46
2021/05/16 04:53:38;;;;;;;7.43;6.82;;;;;;;;;;5009814;28;20177;-45
2021/05/16 04:56:04;;;;;;;8.68;7.90;;;;;;;;;;5009520;28;20687;-45
2021/05/16 04:58:29;;;;;;;8.33;7.57;;;;;;;;;;5010060;28;20169;-44
2021/05/16 05:00:54;;;;;;;8.37;7.60;;;;;;;;;;5009220;28;20652;-45
2021/05/16 05:03:21;;;;;;;8.33;7.73;;;;;;;;;;5009499;28;20195;-45
2021/05/16 05:05:47;;;;;;;7.93;7.30;;;;;;;;;;5009918;28;20327;-45
2021/05/16 05:08:12;;;;;;;7.30;6.80;;;;;;;;;;5008797;28;20623;-46
2021/05/16 05:10:37;;;;;;;8.40;7.70;;;;;;;;;;5009059;28;20236;-44
2021/05/16 05:13:02;;;;;;;8.00;7.40;;;;;;;;;;5007027;28;20177;-45
2021/05/16 05:15:28;;;;;;;8.10;7.50;;;;;;;;;;5008799;28;20173;-45
2021/05/16 05:17:53;;;;;;;8.43;7.80;;;;;;;;;;5009451;28;20244;-44
2021/05/16 05:20:18;;;;;;;8.88;8.18;;;;;;;;;;5009359;28;20181;-45
2021/05/16 05:22:43;;;;;;;8.60;7.90;;;;;;;;;;5008808;28;20257;-44
2021/05/16 05:25:09;;;;;;;8.13;7.45;;;;;;;;;;5009122;28;20263;-45
2021/05/16 05:27:34;;;;;;;8.33;7.70;;;;;;;;;;5009519;28;20755;-45
2021/05/16 05:29:59;;;;;;;8.10;7.50;;;;;;;;;;5009209;28;20191;-45
2021/05/16 05:32:24;;;;;;;8.20;7.57;;;;;;;;;;5009551;28;20166;-45
2021/05/16 05:34:49;;;;;;;7.87;7.23;;;;;;;;;;5009714;28;20264;-44
2021/05/16 05:37:14;;;;;;;6.88;6.38;;;;;;;;;;5009126;28;20201;-46
2021/05/16 05:39:40;;;;;;;6.33;5.83;;;;;;;;;;5008719;28;20172;-45
2021/05/16 05:42:05;;;;;;;7.80;7.20;;;;;;;;;;5008662;28;20186;-46
2021/05/16 05:44:31;;;;;;;7.60;7.00;;;;;;;;;;5007854;28;20186;-46
2021/05/16 05:46:56;;;;;;;7.70;7.03;;;;;;;;;;5008289;28;20195;-46
2021/05/16 05:49:23;;;;;;;6.73;6.23;;;;;;;;;;5007374;28;20596;-47
2021/05/16 05:51:48;;;;;;;7.03;6.43;;;;;;;;;;5008084;28;20181;-44
2021/05/16 05:54:13;;;;;;;6.60;6.00;;;;;;;;;;5007703;28;20974;-44
2021/05/16 05:56:38;;;;;;;6.38;5.88;;;;;;;;;;5005886;28;20210;-46
2021/05/16 05:59:03;;;;;;;5.53;4.85;;;;;;;;;;5007650;28;20228;-44
2021/05/16 06:01:29;;;;;;;5.20;4.77;;;;;;;;;;5004819;28;20164;-44
2021/05/16 06:03:54;;;;;;;4.63;4.23;;;;;;;;;;5003148;28;20187;-44
2021/05/16 06:06:19;;;;;;;5.07;4.00;;;;;;;;;;5005230;28;20185;-46
2021/05/16 06:08:44;;;;;;;4.32;4.03;;;;;;;;;;5004760;28;20193;-46
2021/05/16 06:11:10;;;;;;;3.60;3.37;;;;;;;;;;5001669;28;20225;-46
2021/05/16 06:13:35;;;;;;;4.17;3.07;;;;;;;;;;5004357;28;20595;-43
2021/05/16 06:16:00;;;;;;;3.33;3.07;;;;;;;;;;5004280;28;20212;-43
2021/05/16 06:18:25;;;;;;;4.90;2.83;;;;;;;;;;5004080;28;20213;-44
2021/05/16 06:20:50;;;;;;;2.40;2.20;;;;;;;;;;5005390;28;20591;-43
2021/05/16 06:23:17;;;;;;;2.10;1.83;;;;;;;;;;5004952;28;20175;-43
2021/05/16 06:25:42;;;;;;;2.97;1.50;;;;;;;;;;5005371;28;20234;-44
2021/05/16 06:28:08;;;;;;;2.50;1.77;;;;;;;;;;5004870;28;20601;-44
2021/05/16 06:30:33;;;;;;;1.50;1.40;;;;;;;;;;5015674;28;20211;-46
2021/05/16 06:32:58;;;;;;;1.95;1.70;;;;;;;;;;5005674;28;20170;-45
2021/05/16 06:35:23;;;;;;;2.00;1.53;;;;;;;;;;5004803;28;20659;-45
2021/05/16 06:37:48;;;;;;;1.93;1.73;;;;;;;;;;5004609;28;20232;-44
2021/05/16 06:40:14;;;;;;;1.83;1.63;;;;;;;;;;5001650;28;20256;-44
2021/05/16 06:42:40;;;;;;;1.27;1.13;;;;;;;;;;4994226;28;20545;-44
2021/05/16 06:45:06;;;;;;;2.50;1.67;;;;;;;;;;5004698;28;20644;-45
2021/05/16 06:47:31;;;;;;;1.30;1.20;;;;;;;;;;5004325;28;20871;-45
2021/05/16 06:49:56;;;;;;;1.27;1.13;;;;;;;;;;5006013;28;20223;-45
2021/05/16 06:52:21;;;;;;;1.30;1.20;;;;;;;;;;5005272;28;20224;-45
2021/05/16 06:54:48;;;;;;;1.30;1.20;;;;;;;;;;5007902;28;20178;-44
2021/05/16 06:57:13;;;;;;;1.30;1.20;;;;;;;;;;5007360;28;20192;-44
2021/05/16 06:59:38;;;;;;;1.47;1.37;;;;;;;;;;5006844;28;20605;-46
2021/05/16 07:02:03;;;;;;;1.67;1.35;;;;;;;;;;5006708;28;20180;-45
2021/05/16 07:04:29;;;;;;;2.30;1.37;;;;;;;;;;5007532;28;20188;-46
2021/05/16 07:06:54;;;;;;;1.65;1.55;;;;;;;;;;5007617;28;20302;-45
2021/05/16 07:09:19;;;;;;;1.40;1.30;;;;;;;;;;5004040;28;20199;-44
2021/05/16 07:11:44;;;;;;;1.77;1.57;;;;;;;;;;5003885;28;20253;-44
2021/05/16 07:14:09;;;;;;;1.87;1.57;;;;;;;;;;5007173;28;20189;-44
2021/05/16 07:16:35;;;;;;;1.67;1.57;;;;;;;;;;5007275;28;20218;-47
2021/05/16 07:19:01;;;;;;;1.70;1.60;;;;;;;;;;5007485;28;20199;-45
2021/05/16 07:21:27;;;;;;;1.87;1.77;;;;;;;;;;5007238;28;20247;-46
2021/05/16 07:23:52;;;;;;;1.50;1.40;;;;;;;;;;5007370;28;20674;-46
2021/05/16 07:26:18;;;;;;;5.38;2.03;;;;;;;;;;5007507;28;20174;-46
2021/05/16 07:28:43;;;;;;;1.87;1.63;;;;;;;;;;5006941;28;20604;-45
2021/05/16 07:31:08;;;;;;;3.40;1.93;;;;;;;;;;5006630;28;20185;-46
2021/05/16 07:33:33;;;;;;;3.60;1.80;;;;;;;;;;5007693;28;20246;-45
2021/05/16 07:35:58;;;;;;;2.05;1.85;;;;;;;;;;5007225;28;20718;-44
2021/05/16 07:38:24;;;;;;;3.20;2.20;;;;;;;;;;5006929;28;20643;-46
2021/05/16 07:40:49;;;;;;;3.27;1.73;;;;;;;;;;5007543;28;20655;-45
2021/05/16 07:43:14;;;;;;;3.42;1.80;;;;;;;;;;5006795;28;20178;-45
2021/05/16 07:45:39;;;;;;;2.40;2.20;;;;;;;;;;5006612;28;20176;-44
2021/05/16 07:48:05;;;;;;;2.30;1.60;;;;;;;;;;5007669;28;20190;-46
2021/05/16 07:50:30;;;;;;;2.80;1.73;;;;;;;;;;5006701;28;20175;-45
2021/05/16 07:52:56;;;;;;;1.87;1.53;;;;;;;;;;5006938;28;20196;-45
2021/05/16 07:55:21;;;;;;;2.43;1.43;;;;;;;;;;5007122;28;20544;-46
2021/05/16 07:57:47;;;;;;;2.97;2.17;;;;;;;;;;5007227;28;20261;-44
2021/05/16 08:00:13;;;;;;;3.00;2.10;;;;;;;;;;5006838;28;20326;-45
2021/05/16 08:02:41;;;;;;;2.13;1.67;;;;;;;;;;5006577;28;20677;-45
2021/05/16 08:05:07;;;;;;;1.70;1.60;;;;;;;;;;5006961;28;20175;-45
2021/05/16 08:07:32;;;;;;;2.73;2.53;;;;;;;;;;5007055;28;20571;-45
2021/05/16 08:09:57;;;;;;;4.10;2.60;;;;;;;;;;5006650;28;20427;-45
2021/05/16 08:12:23;;;;;;;7.88;7.07;;;;;;;;;;5006386;28;20231;-45
2021/05/16 08:14:48;;;;;;;13.67;12.37;;;;;;;;;;5006785;28;20195;-46
2021/05/16 08:17:14;;;;;;;4.32;3.05;;;;;;;;;;5006705;28;20197;-45
2021/05/16 08:19:39;;;;;;;2.30;1.70;;;;;;;;;;5006630;28;20173;-45
2021/05/16 08:22:06;;;;;;;3.03;1.70;;;;;;;;;;5006837;28;20586;-45
2021/05/16 08:24:31;;;;;;;2.67;2.43;;;;;;;;;;5006729;28;20170;-44
2021/05/16 08:26:57;;;;;;;10.50;8.00;;;;;;;;;;5006591;28;20650;-44
2021/05/16 08:29:22;;;;;;;4.53;4.13;;;;;;;;;;5006287;28;20721;-45
2021/05/16 08:31:47;;;;;;;2.07;1.90;;;;;;;;;;5007016;28;20185;-45
2021/05/16 08:34:12;;;;;;;2.17;1.93;;;;;;;;;;5006728;28;20260;-45
2021/05/16 08:36:38;;;;;;;1.60;1.40;;;;;;;;;;5006365;28;20543;-46
2021/05/16 08:39:04;;;;;;;2.00;1.80;;;;;;;;;;5007179;28;20548;-46
2021/05/16 08:41:31;;;;;;;4.50;4.07;;;;;;;;;;5006233;28;20592;-45
2021/05/16 08:43:56;;;;;;;8.60;7.70;;;;;;;;;;5009935;28;20584;-44
2021/05/16 08:46:22;;;;;;;7.57;6.88;;;;;;;;;;5010158;28;20584;-45
2021/05/16 08:48:47;;;;;;;3.30;3.07;;;;;;;;;;5010263;28;20955;-45
2021/05/16 08:51:13;;;;;;;3.87;3.57;;;;;;;;;;5009924;28;20179;-46
2021/05/16 08:53:38;;;;;;;14.03;12.63;;;;;;;;;;5009583;28;20191;-45
2021/05/16 08:56:04;;;;;;;3.42;3.08;;;;;;;;;;5009924;28;20584;-45
2021/05/16 08:58:30;;;;;;;1.47;1.37;;;;;;;;;;5009402;28;20193;-45
2021/05/16 09:00:55;;;;;;;2.50;1.87;;;;;;;;;;5009846;28;21175;-46
2021/05/16 09:03:21;;;;;;;1.63;1.30;;;;;;;;;;5009663;28;20583;-46
2021/05/16 09:05:47;;;;;;;1.40;1.30;;;;;;;;;;5009692;28;20714;-45
2021/05/16 09:08:16;;;;;;;1.63;1.50;;;;;;;;;;5009567;28;20439;-46
2021/05/16 09:10:42;;;;;;;1.50;1.30;;;;;;;;;;5009233;28;21230;-44
2021/05/16 09:13:08;;;;;;;1.70;1.50;;;;;;;;;;5009241;28;20591;-44
2021/05/16 09:15:33;;;;;;;2.10;1.57;;;;;;;;;;5009766;28;20578;-46
2021/05/16 09:17:58;;;;;;;2.50;2.30;;;;;;;;;;5009256;28;20655;-45
2021/05/16 09:20:24;;;;;;;1.70;1.60;;;;;;;;;;5009440;28;20217;-45
2021/05/16 09:22:49;;;;;;;2.77;2.03;;;;;;;;;;5009503;28;20250;-45
2021/05/16 09:25:19;;;;;;;1.63;1.53;;;;;;;;;;5009126;28;20179;-46
2021/05/16 09:27:48;;;;;;;1.77;1.67;;;;;;;;;;5008999;28;20671;-46
2021/05/16 09:30:17;;;;;;;2.40;1.60;;;;;;;;;;5009417;28;20614;-45
2021/05/16 09:32:48;;;;;;;2.27;1.77;;;;;;;;;;5008638;28;20582;-46
2021/05/16 09:35:13;;;;;;;1.50;1.40;;;;;;;;;;5009144;28;21132;-45
2021/05/16 09:37:57;;;;;;;2.23;1.27;;;;;;;;;;5008866;28;20672;-45
2021/05/16 09:40:26;;;;;;;1.37;1.10;;;;;;;;;;5009127;28;20199;-46
2021/05/16 09:43:07;;;;;;;3.33;2.30;;;;;;;;;;5008599;28;20985;-45
2021/05/16 09:45:51;;;;;;;1.70;1.60;;;;;;;;;;5009026;28;20577;-45
2021/05/16 09:48:30;;;;;;;2.60;1.73;;;;;;;;;;5008851;28;21180;-45
2021/05/16 09:51:09;;;;;;;2.40;1.43;;;;;;;;;;5008721;28;21426;-45
2021/05/16 09:53:51;;;;;;;1.50;1.40;;;;;;;;;;5008807;28;20574;-45
2021/05/16 09:56:18;;;;;;;2.03;1.23;;;;;;;;;;5008722;28;20643;-45
2021/05/16 09:58:43;;;;;;;2.03;1.57;;;;;;;;;;5008533;28;20878;-45
2021/05/16 10:01:08;;;;;;;1.80;1.40;;;;;;;;;;5008699;28;20580;-45
2021/05/16 10:03:34;;;;;;;2.13;1.60;;;;;;;;;;5008851;28;20559;-46
2021/05/16 10:06:00;;;;;;;2.20;1.40;;;;;;;;;;5008731;28;20622;-46
2021/05/16 10:08:25;;;;;;;1.40;1.30;;;;;;;;;;5008685;28;20636;-46
2021/05/16 10:10:51;;;;;;;2.03;1.17;;;;;;;;;;5008363;28;21241;-47
2021/05/16 10:13:16;;;;;;;1.43;1.33;;;;;;;;;;5008087;28;20186;-44
2021/05/16 10:15:42;;;;;;;1.40;1.30;;;;;;;;;;5008186;28;20176;-46
2021/05/16 10:18:09;;;;;;;1.67;1.50;;;;;;;;;;5008888;28;20216;-46
2021/05/16 10:20:37;;;;;;;1.50;1.40;;;;;;;;;;5008596;28;20176;-45
2021/05/16 10:23:04;;;;;;;1.87;1.30;;;;;;;;;;5008490;28;20582;-46
2021/05/16 10:25:43;;;;;;;2.03;1.30;;;;;;;;;;5007887;28;20940;-46
2021/05/16 10:28:11;;;;;;;1.40;1.30;;;;;;;;;;5008351;28;20588;-45
2021/05/16 10:30:36;;;;;;;2.10;1.63;;;;;;;;;;5008534;28;20605;-45
2021/05/16 10:33:01;;;;;;;1.57;1.30;;;;;;;;;;5008201;28;20677;-45
2021/05/16 10:35:46;;;;;;;2.78;1.50;;;;;;;;;;5008104;28;20183;-45
2021/05/16 10:38:30;;;;;;;3.80;1.60;;;;;;;;;;5007838;28;20740;-46
2021/05/16 10:41:12;;;;;;;1.40;1.30;;;;;;;;;;5008067;28;20989;-46
2021/05/16 10:43:38;;;;;;;1.37;1.20;;;;;;;;;;5008049;28;20920;-45
2021/05/16 10:46:03;;;;;;;2.92;1.55;;;;;;;;;;5008092;28;20582;-46
2021/05/16 10:48:29;;;;;;;2.63;1.40;;;;;;;;;;5007814;28;20669;-46
2021/05/16 10:50:58;;;;;;;1.73;1.60;;;;;;;;;;5007898;28;20170;-46
2021/05/16 10:53:26;;;;;;;1.40;1.10;;;;;;;;;;5007838;28;21136;-46
2021/05/16 10:55:52;;;;;;;3.60;1.37;;;;;;;;;;5007889;28;20637;-46
2021/05/16 10:58:32;;;;;;;2.10;1.40;;;;;;;;;;5007874;28;20986;-46
2021/05/16 11:01:01;;;;;;;2.10;1.30;;;;;;;;;;5007658;28;20207;-45
2021/05/16 11:03:41;;;;;;;1.10;1.10;;;;;;;;;;5007362;28;20579;-46
2021/05/16 11:06:06;;;;;;;2.30;1.30;;;;;;;;;;5006132;28;20588;-44
2021/05/16 11:08:31;;;;;;;2.27;1.40;;;;;;;;;;5007546;28;20577;-45
2021/05/16 11:10:57;;;;;;;1.60;1.50;;;;;;;;;;5007292;28;20579;-45
2021/05/16 11:13:27;;;;;;;1.80;1.47;;;;;;;;;;5007770;28;20705;-45
2021/05/16 11:16:06;;;;;;;2.47;1.23;;;;;;;;;;5007627;28;20587;-46
2021/05/16 11:18:32;;;;;;;1.37;1.27;;;;;;;;;;5006171;28;20602;-45
2021/05/16 11:20:58;;;;;;;1.40;1.30;;;;;;;;;;5007364;28;20588;-45
2021/05/16 11:23:28;;;;;;;1.60;1.50;;;;;;;;;;5007690;28;20177;-45
2021/05/16 11:25:59;;;;;;;2.03;1.50;;;;;;;;;;5007328;28;20611;-45
2021/05/16 11:28:25;;;;;;;2.47;1.30;;;;;;;;;;5007768;28;20718;-46
2021/05/16 11:30:51;;;;;;;2.23;1.80;;;;;;;;;;5007499;28;21232;-46
2021/05/16 11:33:26;;;;;;;1.30;1.20;;;;;;;;;;5007098;28;20586;-45
2021/05/16 11:35:51;;;;;;;1.30;1.20;;;;;;;;;;5007727;28;20180;-45
2021/05/16 11:38:29;;;;;;;3.60;1.87;;;;;;;;;;5007477;28;20659;-45
2021/05/16 11:40:55;;;;;;;1.40;1.30;;;;;;;;;;5007099;28;20263;-45
2021/05/16 11:43:33;;;;;;;2.00;1.40;;;;;;;;;;5007511;28;20670;-45
2021/05/16 11:45:59;;;;;;;2.90;1.37;;;;;;;;;;5007147;28;20850;-48
2021/05/16 11:48:59;;;;;;;1.40;1.30;;;;;;;;;;5007373;28;20594;-45
2021/05/16 11:51:17;;;;;;;1.83;1.30;;;;;;;;;;5007649;28;20280;-47
2021/05/16 11:53:52;;;;;;;1.40;1.30;;;;;;;;;;5005615;28;20739;-46
2021/05/16 11:56:19;;;;;;;2.23;1.50;;;;;;;;;;5005890;28;20296;-45
2021/05/16 11:58:48;;;;;;;1.90;1.60;;;;;;;;;;5006432;28;21366;-46
2021/05/16 12:01:13;;;;;;;1.90;1.60;;;;;;;;;;5007369;28;21330;-46
2021/05/16 12:03:52;;;;;;;2.50;1.80;;;;;;;;;;5007330;28;20697;-46
2021/05/16 12:06:17;;;;;;;2.40;1.53;;;;;;;;;;5006016;28;20208;-47
2021/05/16 12:08:42;;;;;;;2.00;1.63;;;;;;;;;;5003629;28;21274;-46
2021/05/16 12:11:12;;;;;;;1.98;1.42;;;;;;;;;;5002025;28;20717;-46
2021/05/16 12:13:38;;;;;;;1.50;1.40;;;;;;;;;;4997309;28;20550;-45
2021/05/16 12:16:13;;;;;;;1.73;1.50;;;;;;;;;;5002980;28;21187;-45
2021/05/16 12:18:40;;;;;;;1.73;1.27;;;;;;;;;;5006893;28;20191;-46
2021/05/16 12:21:05;;;;;;;1.50;1.40;;;;;;;;;;5005242;28;21020;-46
2021/05/16 12:23:31;;;;;;;1.93;1.30;;;;;;;;;;5006563;28;20592;-46
2021/05/16 12:25:57;;;;;;;1.83;1.30;;;;;;;;;;5014576;28;20196;-46
2021/05/16 12:28:22;;;;;;;1.50;1.20;;;;;;;;;;5022400;28;20602;-45
2021/05/16 12:30:47;;;;;;;1.33;1.00;;;;;;;;;;5008084;28;20184;-45
2021/05/16 12:33:15;;;;;;;1.87;1.30;;;;;;;;;;5007811;28;20183;-45
2021/05/16 12:35:40;;;;;;;1.20;1.10;;;;;;;;;;5007983;28;20231;-45
2021/05/16 12:38:12;;;;;;;1.40;1.30;;;;;;;;;;5007609;28;21260;-46
2021/05/16 12:40:37;;;;;;;1.23;1.13;;;;;;;;;;5012114;28;20264;-44
2021/05/16 12:43:06;;;;;;;1.53;1.37;;;;;;;;;;5014695;28;20702;-45
2021/05/16 12:45:31;;;;;;;1.60;1.50;;;;;;;;;;5026541;28;20184;-45
2021/05/16 12:48:01;;;;;;;1.37;1.27;;;;;;;;;;5023383;28;20610;-45
2021/05/16 12:50:27;;;;;;;1.80;1.47;;;;;;;;;;5016120;28;20722;-46
2021/05/16 12:52:52;;;;;;;1.40;1.30;;;;;;;;;;5009325;28;21164;-46
2021/05/16 12:55:25;;;;;;;1.80;1.30;;;;;;;;;;5006457;28;21179;-46
2021/05/16 12:57:58;;;;;;;1.67;1.30;;;;;;;;;;5007065;28;20223;-45
2021/05/16 13:00:31;;;;;;;3.57;1.30;;;;;;;;;;5007312;28;20571;-46
2021/05/16 13:03:04;;;;;;;1.70;1.30;;;;;;;;;;5006707;28;20761;-46
2021/05/16 13:05:29;;;;;;;2.10;1.40;;;;;;;;;;5006781;28;20739;-46
2021/05/16 13:07:54;;;;;;;2.30;1.13;;;;;;;;;;5006626;28;20991;-46
2021/05/16 13:10:26;;;;;;;3.03;1.50;;;;;;;;;;5006958;28;20273;-46
2021/05/16 13:12:51;;;;;;;2.10;1.30;;;;;;;;;;5013521;28;20209;-46
2021/05/16 13:15:30;;;;;;;1.50;1.40;;;;;;;;;;5016444;28;20591;-46
2021/05/16 13:17:55;;;;;;;2.67;1.30;;;;;;;;;;5017698;28;20217;-46
2021/05/16 13:20:20;;;;;;;1.30;1.00;;;;;;;;;;5013243;28;20616;-46
2021/05/16 13:22:46;;;;;;;3.35;1.20;;;;;;;;;;5020159;28;20185;-46
2021/05/16 13:25:17;;;;;;;1.70;1.08;;;;;;;;;;5015544;28;20666;-46
2021/05/16 13:27:52;;;;;;;1.77;1.47;;;;;;;;;;5012401;28;20647;-45
2021/05/16 13:30:17;;;;;;;1.63;1.10;;;;;;;;;;5011623;28;20669;-45
2021/05/16 13:32:42;;;;;;;2.67;1.20;;;;;;;;;;5014127;28;20614;-45
2021/05/16 13:35:07;;;;;;;1.43;1.00;;;;;;;;;;5009150;28;20178;-45
2021/05/16 13:37:32;;;;;;;6.20;1.50;;;;;;;;;;5007299;28;20211;-44
2021/05/16 13:39:58;;;;;;;1.23;1.10;;;;;;;;;;5010123;28;20189;-45
2021/05/16 13:42:23;;;;;;;1.33;1.23;;;;;;;;;;5014609;28;20267;-44
2021/05/16 13:44:48;;;;;;;1.77;1.67;;;;;;;;;;5012260;28;20181;-45
2021/05/16 13:47:13;;;;;;;2.08;1.20;;;;;;;;;;5009947;28;20177;-45
2021/05/16 13:49:39;;;;;;;2.33;1.93;;;;;;;;;;5011557;28;20596;-45
2021/05/16 13:52:04;;;;;;;1.10;1.00;;;;;;;;;;5006067;28;20676;-44
2021/05/16 13:54:32;;;;;;;1.00;1.00;;;;;;;;;;5013246;28;20204;-45
2021/05/16 13:56:58;;;;;;;1.40;0.80;;;;;;;;;;5006669;28;20921;-45
2021/05/16 13:59:23;;;;;;;2.80;0.70;;;;;;;;;;4998853;28;20600;-45
2021/05/16 14:01:48;;;;;;;1.00;0.87;;;;;;;;;;5004041;28;20185;-45
2021/05/16 14:04:13;;;;;;;1.30;1.20;;;;;;;;;;4991697;28;20718;-45
2021/05/16 14:06:39;;;;;;;1.20;1.10;;;;;;;;;;5002515;28;20212;-45
2021/05/16 14:09:06;;;;;;;1.57;1.10;;;;;;;;;;4993255;28;20187;-45
2021/05/16 14:11:31;;;;;;;1.43;1.10;;;;;;;;;;4982555;28;20734;-46
2021/05/16 14:13:59;;;;;;;1.50;1.40;;;;;;;;;;4991389;28;20718;-45
2021/05/16 14:16:24;;;;;;;1.20;1.10;;;;;;;;;;5005316;28;20223;-45
2021/05/16 14:18:49;;;;;;;1.75;1.20;;;;;;;;;;4985858;28;20589;-45
2021/05/16 14:21:15;;;;;;;1.43;1.00;;;;;;;;;;4993143;28;20379;-45
2021/05/16 14:23:40;;;;;;;1.37;0.97;;;;;;;;;;5013454;28;20187;-45
2021/05/16 14:26:05;;;;;;;1.20;1.10;;;;;;;;;;5026209;28;20176;-46
2021/05/16 14:28:30;;;;;;;1.65;1.10;;;;;;;;;;5016796;28;20175;-45
2021/05/16 14:30:55;;;;;;;1.40;1.27;;;;;;;;;;5022540;28;20169;-46
2021/05/16 14:33:21;;;;;;;2.30;1.40;;;;;;;;;;5028213;28;20318;-45
2021/05/16 14:35:46;;;;;;;1.10;1.10;;;;;;;;;;5027277;28;20230;-45
2021/05/16 14:38:12;;;;;;;1.00;0.97;;;;;;;;;;5017162;28;20671;-45